sensor_id;sensor_type;location;lat;lon;timestamp;P1;durP1;ratioP1;P2;durP2;ratioP2
15331;SDS011;7766;51.534;6.722;2023-08-30T00:00:14;8.97;;;8.07;;
15331;SDS011;7766;51.534;6.722;2023-08-30T00:02:42;12.27;;;7.57;;
15331;SDS011;7766;51.534;6.722;2023-08-30T00:05:09;10.80;;;8.90;;
15331;SDS011;7766;51.534;6.722;2023-08-30T00:07:35;14.17;;;8.50;;
15331;SDS011;7766;51.534;6.722;2023-08-30T00:10:01;10.20;;;8.90;;
15331;SDS011;7766;51.534;6.722;2023-08-30T00:12:27;11.43;;;8.10;;
15331;SDS011;7766;51.534;6.722;2023-08-30T00:14:53;10.87;;;9.23;;
15331;SDS011;7766;51.534;6.722;2023-08-30T00:17:19;11.03;;;9.20;;
15331;SDS011;7766;51.534;6.722;2023-08-30T00:19:45;11.53;;;8.77;;
15331;SDS011;7766;51.534;6.722;2023-08-30T00:22:11;10.80;;;8.93;;
15331;SDS011;7766;51.534;6.722;2023-08-30T00:24:37;11.67;;;8.67;;
15331;SDS011;7766;51.534;6.722;2023-08-30T00:27:03;12.70;;;9.30;;
15331;SDS011;7766;51.534;6.722;2023-08-30T00:29:29;11.80;;;8.57;;
15331;SDS011;7766;51.534;6.722;2023-08-30T00:31:55;9.20;;;8.27;;
15331;SDS011;7766;51.534;6.722;2023-08-30T00:34:21;12.40;;;8.73;;
15331;SDS011;7766;51.534;6.722;2023-08-30T00:36:47;10.90;;;9.27;;
15331;SDS011;7766;51.534;6.722;2023-08-30T00:39:13;13.10;;;9.33;;
15331;SDS011;7766;51.534;6.722;2023-08-30T00:41:39;10.80;;;9.43;;
15331;SDS011;7766;51.534;6.722;2023-08-30T00:44:06;10.53;;;8.40;;
15331;SDS011;7766;51.534;6.722;2023-08-30T00:46:34;10.33;;;8.30;;
15331;SDS011;7766;51.534;6.722;2023-08-30T00:49:01;13.30;;;10.37;;
15331;SDS011;7766;51.534;6.722;2023-08-30T00:51:27;11.23;;;9.20;;
15331;SDS011;7766;51.534;6.722;2023-08-30T00:53:56;11.33;;;9.30;;
15331;SDS011;7766;51.534;6.722;2023-08-30T00:56:23;11.03;;;9.17;;
15331;SDS011;7766;51.534;6.722;2023-08-30T00:58:50;11.23;;;8.87;;
15331;SDS011;7766;51.534;6.722;2023-08-30T01:01:16;12.33;;;8.77;;
15331;SDS011;7766;51.534;6.722;2023-08-30T01:03:43;12.77;;;9.93;;
15331;SDS011;7766;51.534;6.722;2023-08-30T01:06:09;11.33;;;8.93;;
15331;SDS011;7766;51.534;6.722;2023-08-30T01:08:35;13.53;;;9.43;;
15331;SDS011;7766;51.534;6.722;2023-08-30T01:13:48;12.43;;;9.63;;
15331;SDS011;7766;51.534;6.722;2023-08-30T01:16:15;12.00;;;9.80;;
15331;SDS011;7766;51.534;6.722;2023-08-30T01:18:45;10.87;;;9.30;;
15331;SDS011;7766;51.534;6.722;2023-08-30T01:21:12;13.53;;;10.40;;
15331;SDS011;7766;51.534;6.722;2023-08-30T01:23:49;12.13;;;10.73;;
15331;SDS011;7766;51.534;6.722;2023-08-30T01:28:47;12.30;;;9.17;;
15331;SDS011;7766;51.534;6.722;2023-08-30T01:31:13;13.70;;;10.00;;
15331;SDS011;7766;51.534;6.722;2023-08-30T01:33:41;14.23;;;10.73;;
15331;SDS011;7766;51.534;6.722;2023-08-30T01:36:07;15.70;;;10.90;;
15331;SDS011;7766;51.534;6.722;2023-08-30T01:38:34;11.60;;;10.03;;
15331;SDS011;7766;51.534;6.722;2023-08-30T01:41:01;12.37;;;10.37;;
15331;SDS011;7766;51.534;6.722;2023-08-30T01:43:28;14.90;;;10.93;;
15331;SDS011;7766;51.534;6.722;2023-08-30T01:45:54;14.00;;;11.17;;
15331;SDS011;7766;51.534;6.722;2023-08-30T01:48:21;13.80;;;11.73;;
15331;SDS011;7766;51.534;6.722;2023-08-30T01:50:48;16.63;;;11.33;;
15331;SDS011;7766;51.534;6.722;2023-08-30T01:53:14;17.47;;;13.23;;
15331;SDS011;7766;51.534;6.722;2023-08-30T01:55:41;32.03;;;23.47;;
15331;SDS011;7766;51.534;6.722;2023-08-30T01:58:07;19.03;;;14.80;;
15331;SDS011;7766;51.534;6.722;2023-08-30T02:00:34;14.53;;;12.90;;
15331;SDS011;7766;51.534;6.722;2023-08-30T02:03:06;14.13;;;12.37;;
15331;SDS011;7766;51.534;6.722;2023-08-30T02:05:32;14.37;;;12.47;;
15331;SDS011;7766;51.534;6.722;2023-08-30T02:08:05;15.40;;;11.87;;
15331;SDS011;7766;51.534;6.722;2023-08-30T02:10:33;17.63;;;12.37;;
15331;SDS011;7766;51.534;6.722;2023-08-30T02:12:59;17.30;;;12.43;;
15331;SDS011;7766;51.534;6.722;2023-08-30T02:15:27;14.70;;;12.27;;
15331;SDS011;7766;51.534;6.722;2023-08-30T02:17:55;16.90;;;13.17;;
15331;SDS011;7766;51.534;6.722;2023-08-30T02:20:21;16.50;;;12.70;;
15331;SDS011;7766;51.534;6.722;2023-08-30T02:22:47;18.93;;;12.70;;
15331;SDS011;7766;51.534;6.722;2023-08-30T02:25:13;17.20;;;13.17;;
15331;SDS011;7766;51.534;6.722;2023-08-30T02:27:39;16.27;;;12.50;;
15331;SDS011;7766;51.534;6.722;2023-08-30T02:30:05;15.33;;;12.47;;
15331;SDS011;7766;51.534;6.722;2023-08-30T02:32:32;15.77;;;12.80;;
15331;SDS011;7766;51.534;6.722;2023-08-30T02:34:57;14.10;;;12.60;;
15331;SDS011;7766;51.534;6.722;2023-08-30T02:37:26;13.80;;;12.17;;
15331;SDS011;7766;51.534;6.722;2023-08-30T02:39:52;15.37;;;12.70;;
15331;SDS011;7766;51.534;6.722;2023-08-30T02:42:18;16.03;;;12.70;;
15331;SDS011;7766;51.534;6.722;2023-08-30T02:44:44;14.87;;;11.97;;
15331;SDS011;7766;51.534;6.722;2023-08-30T02:47:10;13.60;;;11.53;;
15331;SDS011;7766;51.534;6.722;2023-08-30T02:49:36;16.57;;;12.60;;
15331;SDS011;7766;51.534;6.722;2023-08-30T02:52:02;17.63;;;13.23;;
15331;SDS011;7766;51.534;6.722;2023-08-30T02:54:28;14.63;;;12.60;;
15331;SDS011;7766;51.534;6.722;2023-08-30T02:56:54;14.13;;;12.40;;
15331;SDS011;7766;51.534;6.722;2023-08-30T02:59:19;16.63;;;13.80;;
15331;SDS011;7766;51.534;6.722;2023-08-30T03:01:46;15.93;;;12.50;;
15331;SDS011;7766;51.534;6.722;2023-08-30T03:04:12;14.50;;;13.00;;
15331;SDS011;7766;51.534;6.722;2023-08-30T03:06:38;16.03;;;13.07;;
15331;SDS011;7766;51.534;6.722;2023-08-30T03:09:04;17.00;;;13.67;;
15331;SDS011;7766;51.534;6.722;2023-08-30T03:11:31;13.77;;;12.23;;
15331;SDS011;7766;51.534;6.722;2023-08-30T03:13:56;15.27;;;13.13;;
15331;SDS011;7766;51.534;6.722;2023-08-30T03:16:22;16.47;;;12.30;;
15331;SDS011;7766;51.534;6.722;2023-08-30T03:18:48;15.67;;;12.50;;
15331;SDS011;7766;51.534;6.722;2023-08-30T03:21:14;16.30;;;12.70;;
15331;SDS011;7766;51.534;6.722;2023-08-30T03:23:40;14.90;;;12.00;;
15331;SDS011;7766;51.534;6.722;2023-08-30T03:26:09;15.60;;;12.50;;
15331;SDS011;7766;51.534;6.722;2023-08-30T03:28:36;18.70;;;13.43;;
15331;SDS011;7766;51.534;6.722;2023-08-30T03:31:02;14.73;;;12.17;;
15331;SDS011;7766;51.534;6.722;2023-08-30T03:33:35;16.20;;;12.13;;
15331;SDS011;7766;51.534;6.722;2023-08-30T03:36:01;15.07;;;12.40;;
15331;SDS011;7766;51.534;6.722;2023-08-30T03:38:27;15.73;;;12.03;;
15331;SDS011;7766;51.534;6.722;2023-08-30T03:40:53;14.87;;;11.93;;
15331;SDS011;7766;51.534;6.722;2023-08-30T03:43:20;15.83;;;12.23;;
15331;SDS011;7766;51.534;6.722;2023-08-30T03:45:45;14.67;;;11.10;;
15331;SDS011;7766;51.534;6.722;2023-08-30T03:48:11;12.27;;;10.83;;
15331;SDS011;7766;51.534;6.722;2023-08-30T03:50:37;14.53;;;11.13;;
15331;SDS011;7766;51.534;6.722;2023-08-30T03:53:03;15.73;;;12.47;;
15331;SDS011;7766;51.534;6.722;2023-08-30T03:55:29;13.03;;;11.13;;
15331;SDS011;7766;51.534;6.722;2023-08-30T03:57:55;15.30;;;11.30;;
15331;SDS011;7766;51.534;6.722;2023-08-30T04:00:21;14.47;;;11.90;;
15331;SDS011;7766;51.534;6.722;2023-08-30T04:02:47;14.00;;;10.90;;
15331;SDS011;7766;51.534;6.722;2023-08-30T04:05:13;15.37;;;11.53;;
15331;SDS011;7766;51.534;6.722;2023-08-30T04:07:39;17.03;;;12.27;;
15331;SDS011;7766;51.534;6.722;2023-08-30T04:10:05;16.17;;;11.20;;
15331;SDS011;7766;51.534;6.722;2023-08-30T04:12:32;15.07;;;10.23;;
15331;SDS011;7766;51.534;6.722;2023-08-30T04:14:59;15.80;;;11.80;;
15331;SDS011;7766;51.534;6.722;2023-08-30T04:17:25;13.13;;;10.53;;
15331;SDS011;7766;51.534;6.722;2023-08-30T04:19:53;13.37;;;10.73;;
15331;SDS011;7766;51.534;6.722;2023-08-30T04:22:20;15.43;;;11.20;;
15331;SDS011;7766;51.534;6.722;2023-08-30T04:24:46;15.40;;;10.93;;
15331;SDS011;7766;51.534;6.722;2023-08-30T04:27:12;15.77;;;12.23;;
15331;SDS011;7766;51.534;6.722;2023-08-30T04:29:38;16.43;;;11.40;;
15331;SDS011;7766;51.534;6.722;2023-08-30T04:32:04;15.87;;;12.10;;
15331;SDS011;7766;51.534;6.722;2023-08-30T04:34:30;17.03;;;12.30;;
15331;SDS011;7766;51.534;6.722;2023-08-30T04:36:56;17.93;;;12.10;;
15331;SDS011;7766;51.534;6.722;2023-08-30T04:39:22;18.43;;;10.97;;
15331;SDS011;7766;51.534;6.722;2023-08-30T04:41:48;13.07;;;11.30;;
15331;SDS011;7766;51.534;6.722;2023-08-30T04:44:14;15.57;;;11.37;;
15331;SDS011;7766;51.534;6.722;2023-08-30T04:46:41;14.83;;;11.40;;
15331;SDS011;7766;51.534;6.722;2023-08-30T04:49:07;16.50;;;11.47;;
15331;SDS011;7766;51.534;6.722;2023-08-30T04:51:33;17.20;;;11.70;;
15331;SDS011;7766;51.534;6.722;2023-08-30T04:53:58;14.80;;;12.00;;
15331;SDS011;7766;51.534;6.722;2023-08-30T04:56:24;15.57;;;12.70;;
15331;SDS011;7766;51.534;6.722;2023-08-30T04:58:50;14.93;;;12.20;;
15331;SDS011;7766;51.534;6.722;2023-08-30T05:01:16;18.83;;;13.53;;
15331;SDS011;7766;51.534;6.722;2023-08-30T05:03:42;17.77;;;13.50;;
15331;SDS011;7766;51.534;6.722;2023-08-30T05:06:08;18.87;;;12.90;;
15331;SDS011;7766;51.534;6.722;2023-08-30T05:08:34;15.80;;;13.03;;
15331;SDS011;7766;51.534;6.722;2023-08-30T05:11:00;17.77;;;13.50;;
15331;SDS011;7766;51.534;6.722;2023-08-30T05:13:27;15.93;;;13.20;;
15331;SDS011;7766;51.534;6.722;2023-08-30T05:15:53;20.67;;;14.77;;
15331;SDS011;7766;51.534;6.722;2023-08-30T05:18:19;20.53;;;15.17;;
15331;SDS011;7766;51.534;6.722;2023-08-30T05:20:45;20.13;;;15.33;;
15331;SDS011;7766;51.534;6.722;2023-08-30T05:23:11;19.67;;;15.60;;
15331;SDS011;7766;51.534;6.722;2023-08-30T05:25:37;26.40;;;17.90;;
15331;SDS011;7766;51.534;6.722;2023-08-30T05:28:03;22.90;;;16.37;;
15331;SDS011;7766;51.534;6.722;2023-08-30T05:30:28;24.53;;;16.10;;
15331;SDS011;7766;51.534;6.722;2023-08-30T05:32:54;22.37;;;16.87;;
15331;SDS011;7766;51.534;6.722;2023-08-30T05:35:20;22.07;;;16.10;;
15331;SDS011;7766;51.534;6.722;2023-08-30T05:37:46;20.03;;;15.57;;
15331;SDS011;7766;51.534;6.722;2023-08-30T05:40:11;22.37;;;16.00;;
15331;SDS011;7766;51.534;6.722;2023-08-30T05:42:40;19.70;;;15.70;;
15331;SDS011;7766;51.534;6.722;2023-08-30T05:45:06;23.57;;;15.77;;
15331;SDS011;7766;51.534;6.722;2023-08-30T05:47:32;22.93;;;15.47;;
15331;SDS011;7766;51.534;6.722;2023-08-30T05:49:58;19.97;;;15.63;;
15331;SDS011;7766;51.534;6.722;2023-08-30T05:52:24;20.40;;;16.13;;
15331;SDS011;7766;51.534;6.722;2023-08-30T05:54:50;22.17;;;15.67;;
15331;SDS011;7766;51.534;6.722;2023-08-30T05:57:16;20.20;;;14.27;;
15331;SDS011;7766;51.534;6.722;2023-08-30T05:59:41;22.10;;;15.80;;
15331;SDS011;7766;51.534;6.722;2023-08-30T06:02:07;26.70;;;16.03;;
15331;SDS011;7766;51.534;6.722;2023-08-30T06:04:32;20.47;;;14.70;;
15331;SDS011;7766;51.534;6.722;2023-08-30T06:06:58;23.43;;;15.97;;
15331;SDS011;7766;51.534;6.722;2023-08-30T06:09:24;26.83;;;15.60;;
15331;SDS011;7766;51.534;6.722;2023-08-30T06:11:50;20.97;;;15.43;;
15331;SDS011;7766;51.534;6.722;2023-08-30T06:14:16;18.63;;;15.57;;
15331;SDS011;7766;51.534;6.722;2023-08-30T06:16:42;22.80;;;16.03;;
15331;SDS011;7766;51.534;6.722;2023-08-30T06:19:10;19.40;;;14.47;;
15331;SDS011;7766;51.534;6.722;2023-08-30T06:21:35;19.80;;;14.73;;
15331;SDS011;7766;51.534;6.722;2023-08-30T06:24:01;20.97;;;15.27;;
15331;SDS011;7766;51.534;6.722;2023-08-30T06:26:28;20.73;;;14.90;;
15331;SDS011;7766;51.534;6.722;2023-08-30T06:28:53;20.27;;;13.97;;
15331;SDS011;7766;51.534;6.722;2023-08-30T06:31:20;18.47;;;14.63;;
15331;SDS011;7766;51.534;6.722;2023-08-30T06:33:46;21.47;;;14.10;;
15331;SDS011;7766;51.534;6.722;2023-08-30T06:36:13;18.40;;;14.33;;
15331;SDS011;7766;51.534;6.722;2023-08-30T06:38:40;17.53;;;13.70;;
15331;SDS011;7766;51.534;6.722;2023-08-30T06:41:06;21.00;;;14.37;;
15331;SDS011;7766;51.534;6.722;2023-08-30T06:43:32;18.57;;;13.57;;
15331;SDS011;7766;51.534;6.722;2023-08-30T06:45:58;19.33;;;14.20;;
15331;SDS011;7766;51.534;6.722;2023-08-30T06:48:24;22.27;;;13.70;;
15331;SDS011;7766;51.534;6.722;2023-08-30T06:50:50;20.83;;;13.97;;
15331;SDS011;7766;51.534;6.722;2023-08-30T06:53:16;17.97;;;13.53;;
15331;SDS011;7766;51.534;6.722;2023-08-30T06:55:41;19.87;;;12.97;;
15331;SDS011;7766;51.534;6.722;2023-08-30T06:58:07;20.63;;;14.10;;
15331;SDS011;7766;51.534;6.722;2023-08-30T07:00:33;20.23;;;14.10;;
15331;SDS011;7766;51.534;6.722;2023-08-30T07:02:59;26.27;;;15.00;;
15331;SDS011;7766;51.534;6.722;2023-08-30T07:05:24;20.77;;;14.80;;
15331;SDS011;7766;51.534;6.722;2023-08-30T07:07:50;20.60;;;14.20;;
15331;SDS011;7766;51.534;6.722;2023-08-30T07:10:16;23.63;;;13.60;;
15331;SDS011;7766;51.534;6.722;2023-08-30T07:12:42;18.63;;;13.13;;
15331;SDS011;7766;51.534;6.722;2023-08-30T07:15:08;17.13;;;12.53;;
15331;SDS011;7766;51.534;6.722;2023-08-30T07:17:34;21.03;;;13.57;;
15331;SDS011;7766;51.534;6.722;2023-08-30T07:20:00;16.67;;;12.90;;
15331;SDS011;7766;51.534;6.722;2023-08-30T07:22:26;17.13;;;11.60;;
15331;SDS011;7766;51.534;6.722;2023-08-30T07:24:52;17.47;;;11.37;;
15331;SDS011;7766;51.534;6.722;2023-08-30T07:27:17;22.87;;;14.10;;
15331;SDS011;7766;51.534;6.722;2023-08-30T07:29:43;16.20;;;12.33;;
15331;SDS011;7766;51.534;6.722;2023-08-30T07:32:09;16.00;;;11.77;;
15331;SDS011;7766;51.534;6.722;2023-08-30T07:34:35;16.47;;;11.00;;
15331;SDS011;7766;51.534;6.722;2023-08-30T07:37:01;14.60;;;11.80;;
15331;SDS011;7766;51.534;6.722;2023-08-30T07:39:27;14.43;;;10.60;;
15331;SDS011;7766;51.534;6.722;2023-08-30T07:41:53;12.60;;;9.53;;
15331;SDS011;7766;51.534;6.722;2023-08-30T07:44:19;16.67;;;9.60;;
15331;SDS011;7766;51.534;6.722;2023-08-30T07:46:45;12.90;;;9.40;;
15331;SDS011;7766;51.534;6.722;2023-08-30T07:49:11;13.23;;;9.60;;
15331;SDS011;7766;51.534;6.722;2023-08-30T07:51:37;13.30;;;9.40;;
15331;SDS011;7766;51.534;6.722;2023-08-30T07:54:03;14.47;;;10.30;;
15331;SDS011;7766;51.534;6.722;2023-08-30T07:56:29;10.83;;;8.53;;
15331;SDS011;7766;51.534;6.722;2023-08-30T07:58:55;12.70;;;8.53;;
15331;SDS011;7766;51.534;6.722;2023-08-30T08:01:21;9.37;;;7.77;;
15331;SDS011;7766;51.534;6.722;2023-08-30T08:03:47;10.07;;;6.83;;
15331;SDS011;7766;51.534;6.722;2023-08-30T08:06:12;8.30;;;6.00;;
15331;SDS011;7766;51.534;6.722;2023-08-30T08:08:38;9.50;;;6.60;;
15331;SDS011;7766;51.534;6.722;2023-08-30T08:11:03;7.60;;;6.10;;
15331;SDS011;7766;51.534;6.722;2023-08-30T08:13:29;7.57;;;4.90;;
15331;SDS011;7766;51.534;6.722;2023-08-30T08:15:56;8.17;;;5.20;;
15331;SDS011;7766;51.534;6.722;2023-08-30T08:18:22;6.90;;;4.77;;
15331;SDS011;7766;51.534;6.722;2023-08-30T08:20:49;7.03;;;5.30;;
15331;SDS011;7766;51.534;6.722;2023-08-30T08:23:15;10.33;;;5.40;;
15331;SDS011;7766;51.534;6.722;2023-08-30T08:25:40;8.07;;;5.33;;
15331;SDS011;7766;51.534;6.722;2023-08-30T08:28:06;10.30;;;4.50;;
15331;SDS011;7766;51.534;6.722;2023-08-30T08:30:32;6.70;;;4.97;;
15331;SDS011;7766;51.534;6.722;2023-08-30T08:32:58;8.10;;;5.10;;
15331;SDS011;7766;51.534;6.722;2023-08-30T08:35:24;6.97;;;5.40;;
15331;SDS011;7766;51.534;6.722;2023-08-30T08:37:50;9.60;;;5.30;;
15331;SDS011;7766;51.534;6.722;2023-08-30T08:40:16;7.80;;;4.97;;
15331;SDS011;7766;51.534;6.722;2023-08-30T08:42:42;6.93;;;5.40;;
15331;SDS011;7766;51.534;6.722;2023-08-30T08:45:09;7.43;;;5.40;;
15331;SDS011;7766;51.534;6.722;2023-08-30T08:47:37;8.17;;;6.03;;
15331;SDS011;7766;51.534;6.722;2023-08-30T08:50:03;6.20;;;5.33;;
15331;SDS011;7766;51.534;6.722;2023-08-30T08:52:29;8.30;;;5.60;;
15331;SDS011;7766;51.534;6.722;2023-08-30T08:54:56;8.90;;;5.67;;
15331;SDS011;7766;51.534;6.722;2023-08-30T08:57:22;6.20;;;5.33;;
15331;SDS011;7766;51.534;6.722;2023-08-30T08:59:48;8.20;;;5.67;;
15331;SDS011;7766;51.534;6.722;2023-08-30T09:02:15;7.37;;;5.13;;
15331;SDS011;7766;51.534;6.722;2023-08-30T09:04:41;7.63;;;5.57;;
15331;SDS011;7766;51.534;6.722;2023-08-30T09:07:06;6.37;;;5.73;;
15331;SDS011;7766;51.534;6.722;2023-08-30T09:09:33;8.43;;;6.00;;
15331;SDS011;7766;51.534;6.722;2023-08-30T09:11:59;7.83;;;5.40;;
15331;SDS011;7766;51.534;6.722;2023-08-30T09:14:25;10.67;;;6.90;;
15331;SDS011;7766;51.534;6.722;2023-08-30T09:16:57;7.53;;;6.43;;
15331;SDS011;7766;51.534;6.722;2023-08-30T09:19:23;9.80;;;6.67;;
15331;SDS011;7766;51.534;6.722;2023-08-30T09:21:52;10.30;;;5.93;;
15331;SDS011;7766;51.534;6.722;2023-08-30T09:24:18;9.57;;;5.83;;
15331;SDS011;7766;51.534;6.722;2023-08-30T09:26:48;7.67;;;5.90;;
15331;SDS011;7766;51.534;6.722;2023-08-30T09:29:17;10.10;;;6.57;;
15331;SDS011;7766;51.534;6.722;2023-08-30T09:31:44;7.70;;;6.27;;
15331;SDS011;7766;51.534;6.722;2023-08-30T09:34:10;9.20;;;6.33;;
15331;SDS011;7766;51.534;6.722;2023-08-30T09:36:37;7.47;;;6.67;;
15331;SDS011;7766;51.534;6.722;2023-08-30T09:39:10;8.40;;;6.53;;
15331;SDS011;7766;51.534;6.722;2023-08-30T09:41:36;8.70;;;6.50;;
15331;SDS011;7766;51.534;6.722;2023-08-30T09:44:12;7.17;;;6.23;;
15331;SDS011;7766;51.534;6.722;2023-08-30T09:46:45;9.63;;;7.13;;
15331;SDS011;7766;51.534;6.722;2023-08-30T09:49:11;7.87;;;6.97;;
15331;SDS011;7766;51.534;6.722;2023-08-30T09:51:40;8.07;;;6.87;;
15331;SDS011;7766;51.534;6.722;2023-08-30T09:54:10;8.83;;;6.40;;
15331;SDS011;7766;51.534;6.722;2023-08-30T09:56:41;9.03;;;6.20;;
15331;SDS011;7766;51.534;6.722;2023-08-30T09:59:07;7.07;;;5.67;;
15331;SDS011;7766;51.534;6.722;2023-08-30T10:01:36;6.87;;;5.87;;
15331;SDS011;7766;51.534;6.722;2023-08-30T10:04:02;7.37;;;6.47;;
15331;SDS011;7766;51.534;6.722;2023-08-30T10:06:31;6.57;;;5.83;;
15331;SDS011;7766;51.534;6.722;2023-08-30T10:08:58;9.53;;;6.13;;
15331;SDS011;7766;51.534;6.722;2023-08-30T10:11:24;9.00;;;6.27;;
15331;SDS011;7766;51.534;6.722;2023-08-30T10:13:51;6.87;;;6.07;;
15331;SDS011;7766;51.534;6.722;2023-08-30T10:16:22;9.43;;;6.83;;
15331;SDS011;7766;51.534;6.722;2023-08-30T10:18:50;8.67;;;5.70;;
15331;SDS011;7766;51.534;6.722;2023-08-30T10:21:19;7.63;;;6.83;;
15331;SDS011;7766;51.534;6.722;2023-08-30T10:23:46;9.73;;;7.13;;
15331;SDS011;7766;51.534;6.722;2023-08-30T10:26:13;9.63;;;6.47;;
15331;SDS011;7766;51.534;6.722;2023-08-30T10:28:40;8.87;;;6.57;;
15331;SDS011;7766;51.534;6.722;2023-08-30T10:31:07;12.70;;;6.87;;
15331;SDS011;7766;51.534;6.722;2023-08-30T10:33:43;8.33;;;6.87;;
15331;SDS011;7766;51.534;6.722;2023-08-30T10:36:20;12.27;;;6.50;;
15331;SDS011;7766;51.534;6.722;2023-08-30T10:38:50;9.17;;;6.50;;
15331;SDS011;7766;51.534;6.722;2023-08-30T10:41:20;9.37;;;6.63;;
15331;SDS011;7766;51.534;6.722;2023-08-30T10:43:49;7.97;;;6.73;;
15331;SDS011;7766;51.534;6.722;2023-08-30T10:46:16;7.57;;;6.73;;
15331;SDS011;7766;51.534;6.722;2023-08-30T10:48:41;9.23;;;6.90;;
15331;SDS011;7766;51.534;6.722;2023-08-30T10:53:56;7.63;;;6.30;;
15331;SDS011;7766;51.534;6.722;2023-08-30T10:56:28;9.67;;;7.10;;
15331;SDS011;7766;51.534;6.722;2023-08-30T10:59:01;8.97;;;7.17;;
15331;SDS011;7766;51.534;6.722;2023-08-30T11:01:27;9.20;;;7.30;;
15331;SDS011;7766;51.534;6.722;2023-08-30T11:03:54;8.53;;;7.33;;
15331;SDS011;7766;51.534;6.722;2023-08-30T11:06:20;8.03;;;7.23;;
15331;SDS011;7766;51.534;6.722;2023-08-30T11:08:47;6.20;;;5.27;;
15331;SDS011;7766;51.534;6.722;2023-08-30T11:11:14;7.67;;;5.83;;
15331;SDS011;7766;51.534;6.722;2023-08-30T11:13:40;6.83;;;6.13;;
15331;SDS011;7766;51.534;6.722;2023-08-30T11:16:06;7.90;;;6.43;;
15331;SDS011;7766;51.534;6.722;2023-08-30T11:18:39;7.83;;;6.00;;
15331;SDS011;7766;51.534;6.722;2023-08-30T11:21:06;12.10;;;5.10;;
15331;SDS011;7766;51.534;6.722;2023-08-30T11:23:34;6.83;;;4.87;;
15331;SDS011;7766;51.534;6.722;2023-08-30T11:26:00;6.53;;;4.73;;
15331;SDS011;7766;51.534;6.722;2023-08-30T11:28:28;5.90;;;5.33;;
15331;SDS011;7766;51.534;6.722;2023-08-30T11:30:54;10.90;;;8.10;;
15331;SDS011;7766;51.534;6.722;2023-08-30T11:33:20;21.47;;;16.23;;
15331;SDS011;7766;51.534;6.722;2023-08-30T11:35:48;12.93;;;10.57;;
15331;SDS011;7766;51.534;6.722;2023-08-30T11:38:14;8.53;;;6.00;;
15331;SDS011;7766;51.534;6.722;2023-08-30T11:40:40;6.83;;;5.93;;
15331;SDS011;7766;51.534;6.722;2023-08-30T11:43:06;5.77;;;5.17;;
15331;SDS011;7766;51.534;6.722;2023-08-30T11:45:32;6.67;;;5.23;;
15331;SDS011;7766;51.534;6.722;2023-08-30T11:48:01;6.33;;;5.30;;
15331;SDS011;7766;51.534;6.722;2023-08-30T11:50:28;5.23;;;4.73;;
15331;SDS011;7766;51.534;6.722;2023-08-30T11:52:57;5.40;;;4.83;;
15331;SDS011;7766;51.534;6.722;2023-08-30T11:55:24;6.07;;;4.87;;
15331;SDS011;7766;51.534;6.722;2023-08-30T11:57:51;5.20;;;4.63;;
15331;SDS011;7766;51.534;6.722;2023-08-30T12:00:18;6.60;;;4.50;;
15331;SDS011;7766;51.534;6.722;2023-08-30T12:02:47;5.23;;;3.80;;
15331;SDS011;7766;51.534;6.722;2023-08-30T12:05:13;5.27;;;4.37;;
15331;SDS011;7766;51.534;6.722;2023-08-30T12:07:40;5.53;;;4.50;;
15331;SDS011;7766;51.534;6.722;2023-08-30T12:10:06;5.30;;;4.40;;
15331;SDS011;7766;51.534;6.722;2023-08-30T12:12:33;5.67;;;4.70;;
15331;SDS011;7766;51.534;6.722;2023-08-30T12:15:01;5.87;;;5.10;;
15331;SDS011;7766;51.534;6.722;2023-08-30T12:17:27;5.30;;;4.80;;
15331;SDS011;7766;51.534;6.722;2023-08-30T12:19:56;5.67;;;5.13;;
15331;SDS011;7766;51.534;6.722;2023-08-30T12:22:23;5.53;;;4.93;;
15331;SDS011;7766;51.534;6.722;2023-08-30T12:24:48;5.53;;;5.03;;
15331;SDS011;7766;51.534;6.722;2023-08-30T12:27:14;7.47;;;5.37;;
15331;SDS011;7766;51.534;6.722;2023-08-30T12:29:40;5.77;;;5.17;;
15331;SDS011;7766;51.534;6.722;2023-08-30T12:32:06;6.17;;;4.70;;
15331;SDS011;7766;51.534;6.722;2023-08-30T12:34:32;5.63;;;4.93;;
15331;SDS011;7766;51.534;6.722;2023-08-30T12:36:58;6.10;;;5.03;;
15331;SDS011;7766;51.534;6.722;2023-08-30T12:39:25;7.10;;;4.30;;
15331;SDS011;7766;51.534;6.722;2023-08-30T12:41:50;5.10;;;4.60;;
15331;SDS011;7766;51.534;6.722;2023-08-30T12:44:16;4.87;;;4.47;;
15331;SDS011;7766;51.534;6.722;2023-08-30T12:46:42;4.77;;;4.27;;
15331;SDS011;7766;51.534;6.722;2023-08-30T12:49:08;5.83;;;4.60;;
15331;SDS011;7766;51.534;6.722;2023-08-30T12:51:34;6.00;;;5.27;;
15331;SDS011;7766;51.534;6.722;2023-08-30T12:53:59;7.10;;;5.23;;
15331;SDS011;7766;51.534;6.722;2023-08-30T12:56:25;6.80;;;5.57;;
15331;SDS011;7766;51.534;6.722;2023-08-30T12:58:51;7.13;;;5.00;;
15331;SDS011;7766;51.534;6.722;2023-08-30T13:01:17;5.50;;;4.90;;
15331;SDS011;7766;51.534;6.722;2023-08-30T13:03:43;6.80;;;5.53;;
15331;SDS011;7766;51.534;6.722;2023-08-30T13:06:09;6.00;;;5.43;;
15331;SDS011;7766;51.534;6.722;2023-08-30T13:08:35;9.53;;;7.17;;
15331;SDS011;7766;51.534;6.722;2023-08-30T13:11:01;15.70;;;12.20;;
15331;SDS011;7766;51.534;6.722;2023-08-30T13:13:27;6.63;;;5.60;;
15331;SDS011;7766;51.534;6.722;2023-08-30T13:15:53;16.40;;;12.80;;
15331;SDS011;7766;51.534;6.722;2023-08-30T13:18:19;7.87;;;4.93;;
15331;SDS011;7766;51.534;6.722;2023-08-30T13:20:45;6.27;;;5.13;;
15331;SDS011;7766;51.534;6.722;2023-08-30T13:23:10;26.80;;;18.87;;
15331;SDS011;7766;51.534;6.722;2023-08-30T13:25:39;5.70;;;4.90;;
15331;SDS011;7766;51.534;6.722;2023-08-30T13:28:06;5.97;;;5.40;;
15331;SDS011;7766;51.534;6.722;2023-08-30T13:30:32;5.40;;;4.10;;
15331;SDS011;7766;51.534;6.722;2023-08-30T13:32:58;4.63;;;3.80;;
15331;SDS011;7766;51.534;6.722;2023-08-30T13:35:24;6.83;;;3.90;;
15331;SDS011;7766;51.534;6.722;2023-08-30T13:37:49;4.43;;;3.50;;
15331;SDS011;7766;51.534;6.722;2023-08-30T13:40:15;5.10;;;4.50;;
15331;SDS011;7766;51.534;6.722;2023-08-30T13:42:42;7.07;;;4.40;;
15331;SDS011;7766;51.534;6.722;2023-08-30T13:45:07;23.63;;;20.27;;
15331;SDS011;7766;51.534;6.722;2023-08-30T13:47:34;4.83;;;4.07;;
15331;SDS011;7766;51.534;6.722;2023-08-30T13:50:00;6.93;;;3.63;;
15331;SDS011;7766;51.534;6.722;2023-08-30T13:52:26;4.97;;;3.83;;
15331;SDS011;7766;51.534;6.722;2023-08-30T13:54:54;5.67;;;3.77;;
15331;SDS011;7766;51.534;6.722;2023-08-30T13:57:19;5.10;;;3.87;;
15331;SDS011;7766;51.534;6.722;2023-08-30T13:59:46;3.70;;;3.37;;
15331;SDS011;7766;51.534;6.722;2023-08-30T14:02:12;4.17;;;3.70;;
15331;SDS011;7766;51.534;6.722;2023-08-30T14:04:38;7.03;;;3.67;;
15331;SDS011;7766;51.534;6.722;2023-08-30T14:07:04;4.50;;;3.83;;
15331;SDS011;7766;51.534;6.722;2023-08-30T14:09:29;4.43;;;3.60;;
15331;SDS011;7766;51.534;6.722;2023-08-30T14:11:55;4.47;;;3.80;;
15331;SDS011;7766;51.534;6.722;2023-08-30T14:14:21;5.53;;;4.33;;
15331;SDS011;7766;51.534;6.722;2023-08-30T14:16:47;5.10;;;4.00;;
15331;SDS011;7766;51.534;6.722;2023-08-30T14:19:14;6.63;;;3.97;;
15331;SDS011;7766;51.534;6.722;2023-08-30T14:21:40;9.27;;;3.90;;
15331;SDS011;7766;51.534;6.722;2023-08-30T14:24:06;7.17;;;3.93;;
15331;SDS011;7766;51.534;6.722;2023-08-30T14:26:32;4.63;;;4.10;;
15331;SDS011;7766;51.534;6.722;2023-08-30T14:28:58;5.73;;;4.33;;
15331;SDS011;7766;51.534;6.722;2023-08-30T14:31:24;5.30;;;3.87;;
15331;SDS011;7766;51.534;6.722;2023-08-30T14:33:53;5.10;;;4.30;;
15331;SDS011;7766;51.534;6.722;2023-08-30T14:36:21;4.20;;;3.63;;
15331;SDS011;7766;51.534;6.722;2023-08-30T14:38:46;4.20;;;3.80;;
15331;SDS011;7766;51.534;6.722;2023-08-30T14:41:12;4.73;;;4.03;;
15331;SDS011;7766;51.534;6.722;2023-08-30T14:43:40;6.07;;;4.63;;
15331;SDS011;7766;51.534;6.722;2023-08-30T14:46:06;7.03;;;4.73;;
15331;SDS011;7766;51.534;6.722;2023-08-30T14:48:32;6.53;;;5.50;;
15331;SDS011;7766;51.534;6.722;2023-08-30T14:51:01;8.27;;;5.00;;